Hl Taean — HOAH — position and weather

sailwx.info

Track history (hours):
 
Tides and Currents Weather Stations Pressure Air Temp Water Temp Dewpoint Dewpoint Depression Visibility Wind Speed Wind Dir Waves Ship Positions

Hl Taean

Last reported at 2018-May-03 04:20 UTC. Time now 2018-May-22 10:10 UTC.
Position S 27°47' E 154°02'.
Warning: this ship's position is 19 days out of date.

Length 273 m; draft 15.2 m.

Type: Cargo ship. MMSI: 357061000.

Date/timePositionNaut miles runAvg speedWind from/ knotsBaromVisibWave heightAir tempDewpointWater temp
2018-May-03 04:20S 27°47' E 154°02'4 9.7
2018-May-03 03:57S 27°51' E 154°02'5 9.8
2018-May-03 03:30S 27°55' E 154°01'6 9.7
2018-May-03 02:50S 28°02' E 154°01'4 9.7
2018-May-03 02:27S 28°05' E 154°01'4 9.5
2018-May-03 02:00S 28°10' E 154°00'5 9.2
2018-May-03 01:29S 28°14' E 153°60'5 9.3
2018-May-03 01:00S 28°19' E 153°60'5 9.3
2018-May-03 00:30S 28°23' E 153°59'5 9.4
2018-May-02 23:59S 28°28' E 153°59'5 9.1
2018-May-02 23:28S 28°33' E 153°59'235 8.5
2018-May-01 19:44S 32°21' E 152°53'2 7.5
2018-May-01 19:30S 32°22' E 152°52'4 7.6
2018-May-01 18:59S 32°26' E 152°50'4 7.4
2018-May-01 18:25S 32°29' E 152°47'3 7.4
2018-May-01 18:00S 32°32' E 152°45'4 7.3
2018-May-01 17:30S 32°35' E 152°43'4 7.3
2018-May-01 17:00S 32°38' E 152°41'4 7.2
2018-May-01 16:30S 32°41' E 152°39'4 7.6
2018-May-01 16:00S 32°44' E 152°36'5 9.2
2018-May-01 15:30S 32°47' E 152°31'5 9.8
2018-May-01 15:00S 32°50' E 152°26'5 9.9
2018-May-01 14:30S 32°52' E 152°21'510.2
2018-May-01 14:00S 32°54' E 152°15'510.4
2018-May-01 13:30S 32°55' E 152°10'510.5
2018-May-01 13:00S 32°57' E 152°04'510.2
2018-May-01 12:30S 32°59' E 151°58'5 9.5
2018-May-01 12:00S 32°59' E 151°52'4 7.8
2018-May-01 11:30S 32°56' E 151°49'2 4.2
2018-May-01 11:00S 32°55' E 151°47'1 2.9
2018-May-01 10:30S 32°54' E 151°46'1 2.0
2018-May-01 09:58S 32°53' E 151°46'0 0.0
2018-May-01 09:28S 32°53' E 151°46'0 0.0
2018-May-01 08:58S 32°53' E 151°46'0 0.0
2018-May-01 08:28S 32°53' E 151°46'0 0.0
2018-May-01 07:58S 32°53' E 151°46'0 0.0
2018-May-01 07:28S 32°53' E 151°46'0 0.0
2018-May-01 07:00S 32°53' E 151°46'0 0.0
2018-May-01 06:28S 32°53' E 151°46'0 0.0
2018-May-01 05:58S 32°53' E 151°46'0 0.0
2018-May-01 05:28S 32°53' E 151°46'0 0.0
2018-May-01 04:58S 32°53' E 151°46'0 0.0
2018-May-01 04:28S 32°53' E 151°46'0 0.0
2018-May-01 03:58S 32°53' E 151°46'0 0.0
2018-May-01 03:28S 32°53' E 151°46'0 0.0
2018-May-01 03:00S 32°53' E 151°46'0 0.0
2018-May-01 02:30S 32°53' E 151°46'0 0.0
2018-May-01 02:00S 32°53' E 151°46'0 0.0
2018-May-01 01:28S 32°53' E 151°46'0 0.0
2018-May-01 00:40S 32°53' E 151°46'0 0.0
2018-May-01 00:28S 32°53' E 151°46'0 0.0
2018-Apr-30 23:58S 32°53' E 151°46'0 0.0
2018-Apr-30 23:25S 32°53' E 151°46'0 0.0
2018-Apr-30 22:58S 32°53' E 151°46'0 0.0
2018-Apr-30 22:28S 32°53' E 151°46'0 0.0
2018-Apr-30 21:58S 32°53' E 151°46'0 0.0
2018-Apr-30 21:28S 32°53' E 151°46'0 0.0
2018-Apr-30 20:58S 32°53' E 151°46'0 0.0
2018-Apr-30 20:28S 32°53' E 151°46'0 0.0
2018-Apr-30 19:55S 32°53' E 151°46'0 0.0
2018-Apr-30 19:28S 32°53' E 151°46'0 0.0
2018-Apr-30 18:55S 32°53' E 151°46'0 0.0
2018-Apr-30 18:28S 32°53' E 151°46'0 0.0
2018-Apr-30 17:58S 32°53' E 151°46'0 0.0
2018-Apr-30 17:28S 32°53' E 151°46'0 0.0
2018-Apr-30 16:58S 32°53' E 151°46'0 0.0
2018-Apr-30 16:25S 32°53' E 151°46'0 0.0
2018-Apr-30 15:58S 32°53' E 151°46'0 0.0
2018-Apr-30 15:28S 32°53' E 151°46'0 0.0
2018-Apr-30 14:49S 32°53' E 151°46'0 0.0
2018-Apr-30 14:28S 32°53' E 151°46'0 0.0
2018-Apr-30 13:58S 32°53' E 151°46'0 0.0
2018-Apr-30 13:28S 32°53' E 151°46'0 0.0
2018-Apr-30 12:55S 32°53' E 151°46'0 0.0
2018-Apr-30 12:28S 32°53' E 151°46'0 0.0
2018-Apr-30 11:58S 32°53' E 151°46'0 0.0
2018-Apr-30 11:28S 32°53' E 151°46'0 0.0
2018-Apr-30 10:58S 32°53' E 151°46'0 0.0
2018-Apr-30 10:28S 32°53' E 151°46'0 0.0
2018-Apr-30 09:58S 32°53' E 151°46'0 0.0
2018-Apr-30 09:28S 32°53' E 151°46'0 0.0
2018-Apr-30 08:58S 32°53' E 151°46'0 0.0
2018-Apr-30 08:28S 32°53' E 151°46'0 0.0
2018-Apr-30 07:58S 32°53' E 151°46'0 0.0
2018-Apr-30 07:28S 32°53' E 151°46'0 0.0
2018-Apr-30 06:58S 32°53' E 151°46'0 0.0
2018-Apr-30 06:28S 32°53' E 151°46'0 0.0
2018-Apr-30 05:58S 32°53' E 151°46'0 0.0
2018-Apr-30 05:28S 32°53' E 151°46'0 0.0
2018-Apr-30 04:58S 32°53' E 151°46'0 0.0
2018-Apr-30 04:28S 32°53' E 151°46'0 0.0
2018-Apr-30 03:58S 32°53' E 151°46'0 0.0
2018-Apr-30 03:28S 32°53' E 151°46'0 0.0
2018-Apr-30 02:58S 32°53' E 151°46'0 0.0
2018-Apr-30 02:28S 32°53' E 151°46'0 0.0
2018-Apr-30 01:58S 32°53' E 151°46'0 0.0
2018-Apr-30 01:28S 32°53' E 151°46'0 0.0
2018-Apr-30 00:58S 32°53' E 151°46'0 0.0
2018-Apr-30 00:28S 32°53' E 151°46'0 0.0
2018-Apr-29 23:58S 32°53' E 151°46'0 0.0
2018-Apr-29 23:28S 32°53' E 151°46'0 0.0
2018-Apr-29 22:58S 32°53' E 151°46'0 0.0
2018-Apr-29 22:28S 32°53' E 151°46'0 0.0
2018-Apr-29 21:58S 32°53' E 151°46'0 0.3
2018-Apr-29 21:30S 32°53' E 151°46'1 2.2
2018-Apr-29 21:00S 32°54' E 151°46'2 3.2
2018-Apr-29 20:30S 32°55' E 151°48'3 6.4
2018-Apr-29 20:00S 32°57' E 151°51'3 6.1
2018-Apr-29 19:30S 32°60' E 151°52'3 5.3
2018-Apr-29 19:00S 33°01' E 151°49'3 5.7
2018-Apr-29 18:30S 33°03' E 151°47'0 0.8
2018-Apr-29 18:00S 33°03' E 151°46'0 0.2
2018-Apr-29 17:22S 33°03' E 151°46'0 0.0
2018-Apr-29 16:43S 33°03' E 151°46'0 0.0
2018-Apr-29 15:28S 33°03' E 151°46'0 0.2
2018-Apr-29 14:49S 33°03' E 151°46'0 0.0
2018-Apr-29 14:28S 33°03' E 151°46'0 0.2
2018-Apr-29 13:52S 33°03' E 151°46'0 0.0
2018-Apr-29 13:25S 33°03' E 151°46'0 0.2
2018-Apr-29 12:43S 33°03' E 151°46'0 0.1
2018-Apr-29 12:28S 33°03' E 151°46'0 0.0
2018-Apr-29 11:58S 33°03' E 151°46'0 0.0
2018-Apr-29 11:28S 33°03' E 151°46'0 0.1
2018-Apr-29 10:52S 33°03' E 151°46'0 0.1
2018-Apr-29 10:25S 33°03' E 151°46'0 0.0
2018-Apr-29 09:55S 33°03' E 151°46'0 0.0
2018-Apr-29 09:25S 33°03' E 151°46'0 0.0
2018-Apr-29 08:58S 33°03' E 151°46'0 0.0
2018-Apr-29 08:16S 33°03' E 151°46'0 0.0
2018-Apr-29 07:58S 33°03' E 151°46'0 0.0
2018-Apr-29 07:28S 33°03' E 151°46'0 0.0
2018-Apr-29 06:55S 33°03' E 151°46'0 0.1
2018-Apr-29 06:22S 33°03' E 151°46'0 0.0
2018-Apr-29 05:58S 33°03' E 151°46'0 0.1
2018-Apr-29 05:28S 33°03' E 151°46'0 0.0
2018-Apr-29 04:58S 33°03' E 151°46'0 0.0
2018-Apr-29 04:28S 33°03' E 151°46'0 0.0
2018-Apr-29 03:46S 33°03' E 151°46'0 0.0
2018-Apr-29 03:28S 33°03' E 151°46'0 0.0
2018-Apr-29 02:58S 33°03' E 151°46'0 0.1
2018-Apr-29 02:28S 33°03' E 151°46'0 0.1
2018-Apr-29 01:58S 33°03' E 151°46'0 0.1
2018-Apr-29 01:28S 33°03' E 151°46'0 0.0
2018-Apr-29 00:55S 33°03' E 151°46'0 0.0
2018-Apr-29 00:28S 33°03' E 151°46'0 0.1
2018-Apr-28 23:58S 33°03' E 151°46'0 0.1
2018-Apr-28 23:28S 33°03' E 151°46'1 0.9
2018-Apr-28 22:55S 33°03' E 151°47'2 4.3
2018-Apr-28 22:30S 33°04' E 151°49'4 8.0
2018-Apr-28 22:00S 33°05' E 151°53'4 8.7
2018-Apr-28 21:30S 33°05' E 151°58'510.3
2018-Apr-28 21:00S 33°02' E 152°03'510.1
2018-Apr-28 20:30S 32°59' E 152°08'510.5
2018-Apr-28 20:00S 32°56' E 152°13'510.7
2018-Apr-28 19:30S 32°52' E 152°18'510.4
2018-Apr-28 19:00S 32°49' E 152°23'510.7
2018-Apr-28 18:30S 32°45' E 152°27'611.4
2018-Apr-28 18:00S 32°42' E 152°33'611.5
2018-Apr-28 17:30S 32°39' E 152°38'611.5
2018-Apr-28 17:00S 32°34' E 152°43'610.8
2018-Apr-28 16:26S 32°28' E 152°45'511.6
2018-Apr-28 16:00S 32°24' E 152°47'233 7.3
2018-Apr-27 07:58S 28°37' E 153°52'6 8.5
2018-Apr-27 07:13S 28°31' E 153°53'3 8.4
2018-Apr-27 06:49S 28°28' E 153°54'3 8.5
2018-Apr-27 06:30S 28°25' E 153°54'4 8.6
2018-Apr-27 06:00S 28°21' E 153°55'4 8.7
2018-Apr-27 05:30S 28°16' E 153°56'4 8.5
2018-Apr-27 05:00S 28°12' E 153°56'4 8.9
2018-Apr-27 04:30S 28°08' E 153°57'5 9.3
2018-Apr-27 04:00S 28°03' E 153°58'5 9.5
2018-Apr-27 03:30S 27°59' E 153°59'5 9.6
2018-Apr-27 02:58S 27°53' E 153°60'5 9.5
2018-Apr-27 02:26S 27°48' E 154°00'5 9.4
2018-Apr-27 01:57S 27°44' E 154°01'  
Track history (hours):
 
Tides and Currents Weather Stations Pressure Air Temp Water Temp Dewpoint Dewpoint Depression Visibility Wind Speed Wind Dir Waves Ship Positions

Hl Taean

Last reported at 2018-May-03 04:20 UTC. Time now 2018-May-22 10:10 UTC.
Position S 27°47' E 154°02'.
Warning: this ship's position is 19 days out of date.

Length 273 m; draft 15.2 m.

Type: Cargo ship. MMSI: 357061000.

Date/timePositionNaut miles runAvg speedWind from/ knotsBaromVisibWave heightAir tempDewpointWater temp
2018-May-03 04:20S 27°47' E 154°02'4 9.7
2018-May-03 03:57S 27°51' E 154°02'5 9.8
2018-May-03 03:30S 27°55' E 154°01'6 9.7
2018-May-03 02:50S 28°02' E 154°01'4 9.7
2018-May-03 02:27S 28°05' E 154°01'4 9.5
2018-May-03 02:00S 28°10' E 154°00'5 9.2
2018-May-03 01:29S 28°14' E 153°60'5 9.3
2018-May-03 01:00S 28°19' E 153°60'5 9.3
2018-May-03 00:30S 28°23' E 153°59'5 9.4
2018-May-02 23:59S 28°28' E 153°59'5 9.1
2018-May-02 23:28S 28°33' E 153°59'235 8.5
2018-May-01 19:44S 32°21' E 152°53'2 7.5
2018-May-01 19:30S 32°22' E 152°52'4 7.6
2018-May-01 18:59S 32°26' E 152°50'4 7.4
2018-May-01 18:25S 32°29' E 152°47'3 7.4
2018-May-01 18:00S 32°32' E 152°45'4 7.3
2018-May-01 17:30S 32°35' E 152°43'4 7.3
2018-May-01 17:00S 32°38' E 152°41'4 7.2
2018-May-01 16:30S 32°41' E 152°39'4 7.6
2018-May-01 16:00S 32°44' E 152°36'5 9.2
2018-May-01 15:30S 32°47' E 152°31'5 9.8
2018-May-01 15:00S 32°50' E 152°26'5 9.9
2018-May-01 14:30S 32°52' E 152°21'510.2
2018-May-01 14:00S 32°54' E 152°15'510.4
2018-May-01 13:30S 32°55' E 152°10'510.5
2018-May-01 13:00S 32°57' E 152°04'510.2
2018-May-01 12:30S 32°59' E 151°58'5 9.5
2018-May-01 12:00S 32°59' E 151°52'4 7.8
2018-May-01 11:30S 32°56' E 151°49'2 4.2
2018-May-01 11:00S 32°55' E 151°47'1 2.9
2018-May-01 10:30S 32°54' E 151°46'1 2.0
2018-May-01 09:58S 32°53' E 151°46'0 0.0
2018-May-01 09:28S 32°53' E 151°46'0 0.0
2018-May-01 08:58S 32°53' E 151°46'0 0.0
2018-May-01 08:28S 32°53' E 151°46'0 0.0
2018-May-01 07:58S 32°53' E 151°46'0 0.0
2018-May-01 07:28S 32°53' E 151°46'0 0.0
2018-May-01 07:00S 32°53' E 151°46'0 0.0
2018-May-01 06:28S 32°53' E 151°46'0 0.0
2018-May-01 05:58S 32°53' E 151°46'0 0.0
2018-May-01 05:28S 32°53' E 151°46'0 0.0
2018-May-01 04:58S 32°53' E 151°46'0 0.0
2018-May-01 04:28S 32°53' E 151°46'0 0.0
2018-May-01 03:58S 32°53' E 151°46'0 0.0
2018-May-01 03:28S 32°53' E 151°46'0 0.0
2018-May-01 03:00S 32°53' E 151°46'0 0.0
2018-May-01 02:30S 32°53' E 151°46'0 0.0
2018-May-01 02:00S 32°53' E 151°46'0 0.0
2018-May-01 01:28S 32°53' E 151°46'0 0.0
2018-May-01 00:40S 32°53' E 151°46'0 0.0
2018-May-01 00:28S 32°53' E 151°46'0 0.0
2018-Apr-30 23:58S 32°53' E 151°46'0 0.0
2018-Apr-30 23:25S 32°53' E 151°46'0 0.0
2018-Apr-30 22:58S 32°53' E 151°46'0 0.0
2018-Apr-30 22:28S 32°53' E 151°46'0 0.0
2018-Apr-30 21:58S 32°53' E 151°46'0 0.0
2018-Apr-30 21:28S 32°53' E 151°46'0 0.0
2018-Apr-30 20:58S 32°53' E 151°46'0 0.0
2018-Apr-30 20:28S 32°53' E 151°46'0 0.0
2018-Apr-30 19:55S 32°53' E 151°46'0 0.0
2018-Apr-30 19:28S 32°53' E 151°46'0 0.0
2018-Apr-30 18:55S 32°53' E 151°46'0 0.0
2018-Apr-30 18:28S 32°53' E 151°46'0 0.0
2018-Apr-30 17:58S 32°53' E 151°46'0 0.0
2018-Apr-30 17:28S 32°53' E 151°46'0 0.0
2018-Apr-30 16:58S 32°53' E 151°46'0 0.0
2018-Apr-30 16:25S 32°53' E 151°46'0 0.0
2018-Apr-30 15:58S 32°53' E 151°46'0 0.0
2018-Apr-30 15:28S 32°53' E 151°46'0 0.0
2018-Apr-30 14:49S 32°53' E 151°46'0 0.0
2018-Apr-30 14:28S 32°53' E 151°46'0 0.0
2018-Apr-30 13:58S 32°53' E 151°46'0 0.0
2018-Apr-30 13:28S 32°53' E 151°46'0 0.0
2018-Apr-30 12:55S 32°53' E 151°46'0 0.0
2018-Apr-30 12:28S 32°53' E 151°46'0 0.0
2018-Apr-30 11:58S 32°53' E 151°46'0 0.0
2018-Apr-30 11:28S 32°53' E 151°46'0 0.0
2018-Apr-30 10:58S 32°53' E 151°46'0 0.0
2018-Apr-30 10:28S 32°53' E 151°46'0 0.0
2018-Apr-30 09:58S 32°53' E 151°46'0 0.0
2018-Apr-30 09:28S 32°53' E 151°46'0 0.0
2018-Apr-30 08:58S 32°53' E 151°46'0 0.0
2018-Apr-30 08:28S 32°53' E 151°46'0 0.0
2018-Apr-30 07:58S 32°53' E 151°46'0 0.0
2018-Apr-30 07:28S 32°53' E 151°46'0 0.0
2018-Apr-30 06:58S 32°53' E 151°46'0 0.0
2018-Apr-30 06:28S 32°53' E 151°46'0 0.0
2018-Apr-30 05:58S 32°53' E 151°46'0 0.0
2018-Apr-30 05:28S 32°53' E 151°46'0 0.0
2018-Apr-30 04:58S 32°53' E 151°46'0 0.0
2018-Apr-30 04:28S 32°53' E 151°46'0 0.0
2018-Apr-30 03:58S 32°53' E 151°46'0 0.0
2018-Apr-30 03:28S 32°53' E 151°46'0 0.0
2018-Apr-30 02:58S 32°53' E 151°46'0 0.0
2018-Apr-30 02:28S 32°53' E 151°46'0 0.0
2018-Apr-30 01:58S 32°53' E 151°46'0 0.0
2018-Apr-30 01:28S 32°53' E 151°46'0 0.0
2018-Apr-30 00:58S 32°53' E 151°46'0 0.0
2018-Apr-30 00:28S 32°53' E 151°46'0 0.0
2018-Apr-29 23:58S 32°53' E 151°46'0 0.0
2018-Apr-29 23:28S 32°53' E 151°46'0 0.0
2018-Apr-29 22:58S 32°53' E 151°46'0 0.0
2018-Apr-29 22:28S 32°53' E 151°46'0 0.0
2018-Apr-29 21:58S 32°53' E 151°46'0 0.3
2018-Apr-29 21:30S 32°53' E 151°46'1 2.2
2018-Apr-29 21:00S 32°54' E 151°46'2 3.2
2018-Apr-29 20:30S 32°55' E 151°48'3 6.4
2018-Apr-29 20:00S 32°57' E 151°51'3 6.1
2018-Apr-29 19:30S 32°60' E 151°52'3 5.3
2018-Apr-29 19:00S 33°01' E 151°49'3 5.7
2018-Apr-29 18:30S 33°03' E 151°47'0 0.8
2018-Apr-29 18:00S 33°03' E 151°46'0 0.2
2018-Apr-29 17:22S 33°03' E 151°46'0 0.0
2018-Apr-29 16:43S 33°03' E 151°46'0 0.0
2018-Apr-29 15:28S 33°03' E 151°46'0 0.2
2018-Apr-29 14:49S 33°03' E 151°46'0 0.0
2018-Apr-29 14:28S 33°03' E 151°46'0 0.2
2018-Apr-29 13:52S 33°03' E 151°46'0 0.0
2018-Apr-29 13:25S 33°03' E 151°46'0 0.2
2018-Apr-29 12:43S 33°03' E 151°46'0 0.1
2018-Apr-29 12:28S 33°03' E 151°46'0 0.0
2018-Apr-29 11:58S 33°03' E 151°46'0 0.0
2018-Apr-29 11:28S 33°03' E 151°46'0 0.1
2018-Apr-29 10:52S 33°03' E 151°46'0 0.1
2018-Apr-29 10:25S 33°03' E 151°46'0 0.0
2018-Apr-29 09:55S 33°03' E 151°46'0 0.0
2018-Apr-29 09:25S 33°03' E 151°46'0 0.0
2018-Apr-29 08:58S 33°03' E 151°46'0 0.0
2018-Apr-29 08:16S 33°03' E 151°46'0 0.0
2018-Apr-29 07:58S 33°03' E 151°46'0 0.0
2018-Apr-29 07:28S 33°03' E 151°46'0 0.0
2018-Apr-29 06:55S 33°03' E 151°46'0 0.1
2018-Apr-29 06:22S 33°03' E 151°46'0 0.0
2018-Apr-29 05:58S 33°03' E 151°46'0 0.1
2018-Apr-29 05:28S 33°03' E 151°46'0 0.0
2018-Apr-29 04:58S 33°03' E 151°46'0 0.0
2018-Apr-29 04:28S 33°03' E 151°46'0 0.0
2018-Apr-29 03:46S 33°03' E 151°46'0 0.0
2018-Apr-29 03:28S 33°03' E 151°46'0 0.0
2018-Apr-29 02:58S 33°03' E 151°46'0 0.1
2018-Apr-29 02:28S 33°03' E 151°46'0 0.1
2018-Apr-29 01:58S 33°03' E 151°46'0 0.1
2018-Apr-29 01:28S 33°03' E 151°46'0 0.0
2018-Apr-29 00:55S 33°03' E 151°46'0 0.0
2018-Apr-29 00:28S 33°03' E 151°46'0 0.1
2018-Apr-28 23:58S 33°03' E 151°46'0 0.1
2018-Apr-28 23:28S 33°03' E 151°46'1 0.9
2018-Apr-28 22:55S 33°03' E 151°47'2 4.3
2018-Apr-28 22:30S 33°04' E 151°49'4 8.0
2018-Apr-28 22:00S 33°05' E 151°53'4 8.7
2018-Apr-28 21:30S 33°05' E 151°58'510.3
2018-Apr-28 21:00S 33°02' E 152°03'510.1
2018-Apr-28 20:30S 32°59' E 152°08'510.5
2018-Apr-28 20:00S 32°56' E 152°13'510.7
2018-Apr-28 19:30S 32°52' E 152°18'510.4
2018-Apr-28 19:00S 32°49' E 152°23'510.7
2018-Apr-28 18:30S 32°45' E 152°27'611.4
2018-Apr-28 18:00S 32°42' E 152°33'611.5
2018-Apr-28 17:30S 32°39' E 152°38'611.5
2018-Apr-28 17:00S 32°34' E 152°43'610.8
2018-Apr-28 16:26S 32°28' E 152°45'511.6
2018-Apr-28 16:00S 32°24' E 152°47'233 7.3
2018-Apr-27 07:58S 28°37' E 153°52'6 8.5
2018-Apr-27 07:13S 28°31' E 153°53'3 8.4
2018-Apr-27 06:49S 28°28' E 153°54'3 8.5
2018-Apr-27 06:30S 28°25' E 153°54'4 8.6
2018-Apr-27 06:00S 28°21' E 153°55'4 8.7
2018-Apr-27 05:30S 28°16' E 153°56'4 8.5
2018-Apr-27 05:00S 28°12' E 153°56'4 8.9
2018-Apr-27 04:30S 28°08' E 153°57'5 9.3
2018-Apr-27 04:00S 28°03' E 153°58'5 9.5
2018-Apr-27 03:30S 27°59' E 153°59'5 9.6
2018-Apr-27 02:58S 27°53' E 153°60'5 9.5
2018-Apr-27 02:26S 27°48' E 154°00'5 9.4
2018-Apr-27 01:57S 27°44' E 154°01'  

Dump ship's entire track history